Time;durP1;ratioP1;P1;durP2;ratioP2;P2;SDS_P1;SDS_P2;PMS_P1;PMS_P2;Temp;Humidity;BMP_temperature;BMP_pressure;BME280_temperature;BME280_humidity;BME280_pressure;Samples;Min_cycle;Max_cycle;Signal;HPM_P1;HPM_P2
2023/05/31 00:02:07;;;;;;;0.80;0.80;;;20.60;96.40;;;;;;5074574;28;20203;-60
2023/05/31 00:04:34;;;;;;;1.10;1.00;;;20.60;96.20;;;;;;5075091;28;20213;-63
2023/05/31 00:07:01;;;;;;;1.00;1.00;;;20.60;96.20;;;;;;5074783;28;20203;-60
2023/05/31 00:09:29;;;;;;;1.10;1.10;;;20.50;96.50;;;;;;5074549;28;20231;-62
2023/05/31 00:11:56;;;;;;;0.90;0.90;;;20.50;96.40;;;;;;5075109;28;20704;-62
2023/05/31 00:14:22;;;;;;;1.00;1.00;;;20.50;96.40;;;;;;5075758;28;20237;-61
2023/05/31 00:16:49;;;;;;;1.08;0.90;;;20.50;96.50;;;;;;5074465;28;20220;-60
2023/05/31 00:19:16;;;;;;;2.70;1.00;;;20.40;96.50;;;;;;5073837;28;20223;-62
2023/05/31 00:21:45;;;;;;;0.90;0.90;;;20.40;96.60;;;;;;5074607;28;20222;-61
2023/05/31 00:24:12;;;;;;;0.85;0.85;;;20.40;96.70;;;;;;5074487;28;20203;-61
2023/05/31 00:26:40;;;;;;;0.88;0.88;;;20.40;96.90;;;;;;5074090;28;20227;-61
2023/05/31 00:29:07;;;;;;;0.90;0.90;;;20.30;96.80;;;;;;5073044;28;20824;-61
2023/05/31 00:31:34;;;;;;;1.00;1.00;;;20.40;97.10;;;;;;5074438;28;20210;-60
2023/05/31 00:34:00;;;;;;;1.00;1.00;;;20.30;97.30;;;;;;5074518;28;20650;-62
2023/05/31 00:36:27;;;;;;;0.93;0.93;;;20.20;97.50;;;;;;5076649;28;20205;-60
2023/05/31 00:38:54;;;;;;;1.00;1.00;;;20.20;97.60;;;;;;5082375;28;20203;-60
2023/05/31 00:41:21;;;;;;;0.90;0.90;;;20.20;97.30;;;;;;5074262;28;20567;-61
2023/05/31 00:43:49;;;;;;;1.00;1.00;;;20.20;97.50;;;;;;5073835;28;20239;-62
2023/05/31 00:46:25;;;;;;;0.88;0.88;;;20.20;97.80;;;;;;5074264;28;20226;-62
2023/05/31 00:48:52;;;;;;;1.00;1.00;;;20.20;97.80;;;;;;5073316;28;20213;-61
2023/05/31 00:51:20;;;;;;;1.00;1.00;;;20.10;98.00;;;;;;5073445;28;20229;-60
2023/05/31 00:53:47;;;;;;;1.00;1.00;;;20.00;98.30;;;;;;5074624;28;20221;-60
2023/05/31 00:56:14;;;;;;;1.17;1.10;;;20.00;98.30;;;;;;5085172;28;20282;-63
2023/05/31 00:58:42;;;;;;;0.93;0.93;;;19.90;98.50;;;;;;5075325;28;20222;-60
2023/05/31 01:01:11;;;;;;;2.47;1.13;;;20.00;99.10;;;;;;5072490;28;20602;-61
2023/05/31 01:03:38;;;;;;;1.30;1.20;;;20.00;98.80;;;;;;5073835;28;20674;-61
2023/05/31 01:06:06;;;;;;;1.30;1.20;;;20.10;98.70;;;;;;5073395;28;20261;-61
2023/05/31 01:08:33;;;;;;;1.35;1.30;;;20.20;98.40;;;;;;5073844;28;20199;-61
2023/05/31 01:11:07;;;;;;;1.42;1.30;;;20.20;98.50;;;;;;5072429;28;20591;-61
2023/05/31 01:13:43;;;;;;;1.10;1.05;;;20.20;98.10;;;;;;5073359;28;20301;-61
2023/05/31 01:16:17;;;;;;;1.08;1.08;;;20.20;97.90;;;;;;5073498;28;20195;-62
2023/05/31 01:18:46;;;;;;;1.02;1.02;;;20.20;98.00;;;;;;5073649;28;20577;-62
2023/05/31 01:21:16;;;;;;;0.90;0.90;;;20.20;97.70;;;;;;5072607;28;20223;-62
2023/05/31 01:24:00;;;;;;;1.10;1.10;;;20.10;97.70;;;;;;5074156;28;20203;-60
2023/05/31 01:26:37;;;;;;;1.13;1.05;;;20.10;97.90;;;;;;5074087;28;20207;-60
2023/05/31 01:29:08;;;;;;;1.00;1.00;;;20.00;98.10;;;;;;5067575;28;20215;-62
2023/05/31 01:31:37;;;;;;;1.13;1.13;;;20.00;98.20;;;;;;5073640;28;20207;-62
2023/05/31 01:34:05;;;;;;;0.82;0.82;;;19.90;98.10;;;;;;5071275;28;20260;-61
2023/05/31 01:36:32;;;;;;;1.10;1.00;;;19.80;98.10;;;;;;5074432;28;20214;-62
2023/05/31 01:39:01;;;;;;;1.45;1.30;;;19.70;97.70;;;;;;5076235;28;20199;-61
2023/05/31 01:41:30;;;;;;;0.90;0.90;;;19.80;97.40;;;;;;5074401;28;20191;-61
2023/05/31 01:43:59;;;;;;;0.85;0.85;;;19.80;97.60;;;;;;5073956;28;20203;-61
2023/05/31 01:46:26;;;;;;;1.15;1.00;;;19.80;97.80;;;;;;5067031;28;20215;-61
2023/05/31 01:48:53;;;;;;;1.08;1.08;;;19.80;98.20;;;;;;5073538;28;20203;-63
2023/05/31 01:51:22;;;;;;;0.93;0.93;;;19.80;97.40;;;;;;5078052;28;20225;-63
2023/05/31 01:53:49;;;;;;;1.13;1.08;;;19.80;97.80;;;;;;5084897;28;20203;-61
2023/05/31 01:56:19;;;;;;;1.05;1.05;;;19.70;98.30;;;;;;5084632;28;20199;-60
2023/05/31 01:58:48;;;;;;;1.02;1.02;;;19.60;98.30;;;;;;5081194;28;20218;-61
2023/05/31 02:01:18;;;;;;;1.00;1.00;;;19.60;98.20;;;;;;5075252;28;20230;-60
2023/05/31 02:03:45;;;;;;;1.00;1.00;;;19.50;98.40;;;;;;5073273;28;20199;-60
2023/05/31 02:06:13;;;;;;;1.40;0.90;;;19.50;98.70;;;;;;5072488;28;20353;-61
2023/05/31 02:08:40;;;;;;;1.10;1.10;;;19.40;99.10;;;;;;5072880;28;20203;-64
2023/05/31 02:11:08;;;;;;;1.10;1.10;;;19.40;99.00;;;;;;5072000;28;20261;-61
2023/05/31 02:13:35;;;;;;;1.00;1.00;;;19.40;98.80;;;;;;5072413;28;20205;-63
2023/05/31 02:16:03;;;;;;;2.67;1.30;;;19.40;99.10;;;;;;5072388;28;20252;-61
2023/05/31 02:18:32;;;;;;;0.80;0.80;;;19.20;99.30;;;;;;5073034;28;20203;-61
2023/05/31 02:20:59;;;;;;;0.95;0.93;;;19.00;99.60;;;;;;5071981;28;20223;-62
2023/05/31 02:23:26;;;;;;;1.40;1.30;;;18.70;99.90;;;;;;5072788;28;20269;-60
2023/05/31 02:25:55;;;;;;;1.02;1.02;;;18.50;99.90;;;;;;5073043;28;20219;-60
2023/05/31 02:28:22;;;;;;;1.15;1.13;;;18.20;99.90;;;;;;5074477;28;20203;-62
2023/05/31 02:30:56;;;;;;;1.00;1.00;;;17.90;99.90;;;;;;5073581;28;20230;-61
2023/05/31 02:33:22;;;;;;;0.95;0.95;;;17.80;99.90;;;;;;5078959;28;20207;-63
2023/05/31 02:35:51;;;;;;;1.23;1.00;;;17.90;99.90;;;;;;5077729;28;20209;-61
2023/05/31 02:38:19;;;;;;;1.10;1.10;;;17.90;99.90;;;;;;5076534;28;20199;-61
2023/05/31 02:40:45;;;;;;;0.98;0.98;;;17.80;99.90;;;;;;5074911;28;20255;-61
2023/05/31 02:43:12;;;;;;;1.00;1.00;;;17.70;99.90;;;;;;5072908;28;20203;-60
2023/05/31 02:45:39;;;;;;;1.20;1.10;;;17.60;99.90;;;;;;5072384;28;20230;-61
2023/05/31 02:48:07;;;;;;;1.27;1.00;;;17.60;99.90;;;;;;5082751;28;20279;-61
2023/05/31 02:50:33;;;;;;;1.15;1.05;;;17.50;99.90;;;;;;5076543;28;20261;-63
2023/05/31 02:53:04;;;;;;;1.00;1.00;;;17.40;99.90;;;;;;5072066;28;20233;-60
2023/05/31 02:55:31;;;;;;;1.10;1.10;;;17.30;99.90;;;;;;5071841;28;20207;-61
2023/05/31 02:57:58;;;;;;;1.20;1.10;;;17.30;99.90;;;;;;5072178;28;20205;-61
2023/05/31 03:00:25;;;;;;;1.00;1.00;;;17.30;99.90;;;;;;5072058;28;20643;-60
2023/05/31 03:02:52;;;;;;;1.48;0.90;;;17.20;99.90;;;;;;5075600;28;20210;-60
2023/05/31 03:05:20;;;;;;;1.00;1.00;;;17.00;99.90;;;;;;5072456;28;20218;-61
2023/05/31 03:07:47;;;;;;;1.27;1.20;;;16.90;99.90;;;;;;5072054;28;20203;-62
2023/05/31 03:10:16;;;;;;;1.27;0.90;;;17.00;99.90;;;;;;5070931;28;20227;-61
2023/05/31 03:12:43;;;;;;;1.05;1.05;;;16.90;99.90;;;;;;5071348;28;20203;-60
2023/05/31 03:15:10;;;;;;;1.08;1.02;;;16.90;99.90;;;;;;5071801;28;20694;-60
2023/05/31 03:17:38;;;;;;;1.00;1.00;;;17.00;99.90;;;;;;5071242;28;20229;-62
2023/05/31 03:20:09;;;;;;;1.33;1.10;;;17.00;99.90;;;;;;5072101;28;20759;-62
2023/05/31 03:22:36;;;;;;;1.05;1.05;;;16.90;99.90;;;;;;5073337;28;20210;-62
2023/05/31 03:25:04;;;;;;;1.23;1.00;;;16.80;99.90;;;;;;5072452;28;20294;-62
2023/05/31 03:27:32;;;;;;;0.90;0.90;;;16.80;99.90;;;;;;5072094;28;20230;-61
2023/05/31 03:29:59;;;;;;;1.00;1.00;;;16.80;99.90;;;;;;5070875;28;20231;-62
2023/05/31 03:32:26;;;;;;;0.90;0.90;;;16.70;99.90;;;;;;5071564;28;20294;-61
2023/05/31 03:34:53;;;;;;;1.25;1.15;;;16.70;99.90;;;;;;5071592;28;20615;-62
2023/05/31 03:37:20;;;;;;;0.95;0.95;;;16.70;99.90;;;;;;5071573;28;20661;-61
2023/05/31 03:39:47;;;;;;;2.05;1.10;;;16.50;99.90;;;;;;5071048;28;20231;-60
2023/05/31 03:42:14;;;;;;;1.05;0.95;;;16.50;99.90;;;;;;5071370;28;20205;-60
2023/05/31 03:44:42;;;;;;;0.90;0.90;;;16.50;99.90;;;;;;5071019;28;20767;-61
2023/05/31 03:47:10;;;;;;;1.08;1.08;;;16.50;99.90;;;;;;5071289;28;20338;-62
2023/05/31 03:49:37;;;;;;;1.00;1.00;;;16.50;99.90;;;;;;5070825;28;20281;-60
2023/05/31 03:52:04;;;;;;;1.02;1.02;;;16.40;99.90;;;;;;5071131;28;20661;-62
2023/05/31 03:54:31;;;;;;;0.98;0.98;;;16.20;99.90;;;;;;5071235;28;20206;-60
2023/05/31 03:56:58;;;;;;;0.90;0.90;;;16.10;99.90;;;;;;5071220;28;20630;-60
2023/05/31 03:59:24;;;;;;;1.15;1.05;;;16.00;99.90;;;;;;5070697;28;20633;-60
2023/05/31 04:01:53;;;;;;;1.17;1.10;;;15.80;99.90;;;;;;5071139;28;20203;-61
2023/05/31 04:04:20;;;;;;;1.10;1.00;;;15.80;99.90;;;;;;5070874;28;20207;-61
2023/05/31 04:06:47;;;;;;;1.00;1.00;;;16.00;99.90;;;;;;5071269;28;20575;-60
2023/05/31 04:09:13;;;;;;;1.30;1.20;;;15.90;99.90;;;;;;5070396;28;20210;-60
2023/05/31 04:11:40;;;;;;;0.93;0.93;;;16.00;99.90;;;;;;5070912;28;20207;-62
2023/05/31 04:14:07;;;;;;;0.80;0.80;;;15.90;99.90;;;;;;5065298;28;20218;-60
2023/05/31 04:16:34;;;;;;;1.15;1.15;;;15.80;99.90;;;;;;5063105;28;20202;-60
2023/05/31 04:19:02;;;;;;;1.00;1.00;;;15.80;99.90;;;;;;5070780;28;20208;-60
2023/05/31 04:21:29;;;;;;;0.95;0.95;;;16.00;99.90;;;;;;5067294;28;20204;-62
2023/05/31 04:23:57;;;;;;;0.98;0.98;;;15.90;99.90;;;;;;5071822;28;20286;-60
2023/05/31 04:26:23;;;;;;;1.15;0.90;;;16.00;99.90;;;;;;5074609;28;20227;-61
2023/05/31 04:28:53;;;;;;;1.00;1.00;;;16.10;99.90;;;;;;5075343;28;20207;-60
2023/05/31 04:31:20;;;;;;;1.38;1.27;;;16.00;99.90;;;;;;5074622;28;20223;-61
2023/05/31 04:33:47;;;;;;;0.98;0.98;;;15.90;99.90;;;;;;5075653;28;20215;-62
2023/05/31 04:36:15;;;;;;;1.08;1.08;;;16.00;99.90;;;;;;5075676;28;20209;-61
2023/05/31 04:38:42;;;;;;;1.02;1.02;;;16.10;99.90;;;;;;5067671;28;20235;-61
2023/05/31 04:41:10;;;;;;;1.00;1.00;;;16.00;99.90;;;;;;5074587;28;20219;-63
2023/05/31 04:43:39;;;;;;;0.90;0.90;;;16.00;99.90;;;;;;5086322;28;20700;-61
2023/05/31 04:46:09;;;;;;;2.03;1.55;;;16.00;99.90;;;;;;5091257;28;20215;-62
2023/05/31 04:48:36;;;;;;;1.20;1.10;;;16.10;99.90;;;;;;5088874;28;20207;-62
2023/05/31 04:51:03;;;;;;;1.80;1.10;;;16.10;99.90;;;;;;5089285;28;20700;-62
2023/05/31 04:53:32;;;;;;;1.65;1.30;;;16.10;99.90;;;;;;5082521;28;20199;-62
2023/05/31 04:56:04;;;;;;;1.95;1.60;;;16.20;99.90;;;;;;5079862;28;20209;-62
2023/05/31 04:58:31;;;;;;;1.60;1.50;;;16.20;99.90;;;;;;5076640;28;20199;-61
2023/05/31 05:00:59;;;;;;;1.30;1.20;;;16.40;99.90;;;;;;5074578;28;20234;-61
2023/05/31 05:03:26;;;;;;;1.33;1.33;;;16.30;99.90;;;;;;5075560;28;20546;-61
2023/05/31 05:05:53;;;;;;;1.10;1.10;;;16.30;99.90;;;;;;5075351;28;20195;-60
2023/05/31 05:08:20;;;;;;;1.77;1.45;;;16.40;99.90;;;;;;5072121;28;20214;-61
2023/05/31 05:10:48;;;;;;;1.38;1.27;;;16.40;99.90;;;;;;5075683;28;20291;-62
2023/05/31 05:13:16;;;;;;;1.33;1.30;;;16.50;99.90;;;;;;5076263;28;20203;-63
2023/05/31 05:15:43;;;;;;;0.95;0.93;;;16.70;99.90;;;;;;5072148;28;20642;-62
2023/05/31 05:18:10;;;;;;;2.17;1.10;;;16.90;99.90;;;;;;5074303;28;20196;-61
2023/05/31 05:20:37;;;;;;;1.33;1.23;;;17.20;99.90;;;;;;5066785;28;20231;-62
2023/05/31 05:23:06;;;;;;;1.30;1.20;;;17.30;99.90;;;;;;5067038;28;20199;-60
2023/05/31 05:25:34;;;;;;;1.27;1.08;;;17.40;99.90;;;;;;5078257;28;20199;-61
2023/05/31 05:28:02;;;;;;;1.38;1.20;;;17.60;99.90;;;;;;5063228;28;20645;-62
2023/05/31 05:30:29;;;;;;;1.00;1.00;;;17.70;99.90;;;;;;5080394;28;20234;-62
2023/05/31 05:32:56;;;;;;;1.30;1.30;;;17.80;99.90;;;;;;5074090;28;20206;-61
2023/05/31 05:35:23;;;;;;;1.50;1.10;;;17.80;99.90;;;;;;5068676;28;20200;-62
2023/05/31 05:37:50;;;;;;;1.30;1.20;;;18.00;99.90;;;;;;5071565;28;20190;-61
2023/05/31 05:40:17;;;;;;;1.20;1.20;;;18.00;99.90;;;;;;5073102;28;20215;-61
2023/05/31 05:42:43;;;;;;;1.05;1.02;;;18.00;99.90;;;;;;5069400;28;20206;-63
2023/05/31 05:45:13;;;;;;;1.20;1.10;;;18.30;99.90;;;;;;5070968;28;20290;-62
2023/05/31 05:47:40;;;;;;;1.27;1.17;;;18.50;99.90;;;;;;5069478;28;20280;-63
2023/05/31 05:50:10;;;;;;;1.20;1.10;;;18.70;99.90;;;;;;5071111;28;20219;-64
2023/05/31 05:52:37;;;;;;;1.10;1.10;;;18.80;99.90;;;;;;5073661;28;20187;-63
2023/05/31 05:55:10;;;;;;;1.10;1.10;;;18.80;99.90;;;;;;5072879;28;20210;-65
2023/05/31 05:57:41;;;;;;;1.17;1.17;;;18.90;99.90;;;;;;5072763;28;20208;-62
2023/05/31 06:00:10;;;;;;;1.33;1.23;;;18.80;99.90;;;;;;5072317;28;20231;-61
2023/05/31 06:02:39;;;;;;;1.08;1.00;;;18.90;99.90;;;;;;5072893;28;20209;-61
2023/05/31 06:05:06;;;;;;;1.30;1.20;;;19.00;99.90;;;;;;5067244;28;20213;-61
2023/05/31 06:07:33;;;;;;;1.30;1.20;;;19.10;99.90;;;;;;5072532;28;20231;-63
2023/05/31 06:10:02;;;;;;;1.15;1.15;;;19.00;99.90;;;;;;5071921;28;20233;-62
2023/05/31 06:12:29;;;;;;;2.15;1.30;;;19.20;99.90;;;;;;5072760;28;20264;-63
2023/05/31 06:14:56;;;;;;;1.15;1.05;;;19.60;99.90;;;;;;5074561;28;20203;-63
2023/05/31 06:17:23;;;;;;;1.40;1.30;;;19.60;99.90;;;;;;5074059;28;20204;-63
2023/05/31 06:19:51;;;;;;;1.20;1.10;;;19.50;99.90;;;;;;5073650;28;20602;-63
2023/05/31 06:22:18;;;;;;;1.40;1.30;;;19.70;99.90;;;;;;5074791;28;20294;-62
2023/05/31 06:24:47;;;;;;;1.20;1.13;;;19.80;99.90;;;;;;5077530;28;20266;-63
2023/05/31 06:27:14;;;;;;;1.45;1.35;;;19.90;99.90;;;;;;5075686;28;20207;-64
2023/05/31 06:29:41;;;;;;;2.03;1.58;;;20.00;99.90;;;;;;5073604;28;20223;-66
2023/05/31 06:32:08;;;;;;;1.33;1.20;;;20.00;99.90;;;;;;5074817;28;20217;-63
2023/05/31 06:34:35;;;;;;;1.40;1.30;;;20.00;99.90;;;;;;5074851;28;20213;-62
2023/05/31 06:37:03;;;;;;;6.38;1.52;;;20.20;99.90;;;;;;5075289;28;20303;-62
2023/05/31 06:39:30;;;;;;;1.40;1.30;;;20.40;99.90;;;;;;5073196;28;20728;-63
2023/05/31 06:41:59;;;;;;;1.10;1.10;;;20.40;99.90;;;;;;5074048;28;20216;-62
2023/05/31 06:44:26;;;;;;;1.30;1.20;;;20.40;99.90;;;;;;5072573;28;20229;-61
2023/05/31 06:46:53;;;;;;;1.30;1.20;;;20.40;99.90;;;;;;5071794;28;20223;-61
2023/05/31 06:49:20;;;;;;;1.30;1.20;;;20.40;99.90;;;;;;5065830;28;20992;-62
2023/05/31 06:51:47;;;;;;;1.17;1.17;;;20.60;99.90;;;;;;5060961;28;20211;-62
2023/05/31 06:54:15;;;;;;;1.10;1.10;;;20.60;99.90;;;;;;5072327;28;20289;-62
2023/05/31 06:56:42;;;;;;;1.38;1.27;;;20.80;99.90;;;;;;5075641;28;20206;-62
2023/05/31 06:59:09;;;;;;;1.30;1.20;;;21.00;99.90;;;;;;5073650;28;20197;-63
2023/05/31 07:01:36;;;;;;;1.15;1.15;;;21.00;99.90;;;;;;5074161;28;20295;-62
2023/05/31 07:04:03;;;;;;;1.17;1.15;;;21.10;99.90;;;;;;5073644;28;20199;-63
2023/05/31 07:06:30;;;;;;;0.90;0.90;;;21.20;99.90;;;;;;5073800;28;20737;-63
2023/05/31 07:08:57;;;;;;;1.10;1.10;;;21.30;99.90;;;;;;5073759;28;20507;-62
2023/05/31 07:11:25;;;;;;;1.23;1.20;;;21.30;99.90;;;;;;5073295;28;20270;-64
2023/05/31 07:13:52;;;;;;;1.20;1.10;;;21.20;99.90;;;;;;5073609;28;20199;-62
2023/05/31 07:16:19;;;;;;;1.10;1.10;;;21.40;99.90;;;;;;5072435;28;20230;-64
2023/05/31 07:18:47;;;;;;;1.35;1.20;;;21.50;99.90;;;;;;5072135;28;20274;-63
2023/05/31 07:21:14;;;;;;;1.13;1.13;;;21.50;99.90;;;;;;5069705;28;20253;-63
2023/05/31 07:23:41;;;;;;;1.10;1.10;;;21.50;99.90;;;;;;5072024;28;20199;-61
2023/05/31 07:26:07;;;;;;;1.20;1.20;;;21.60;99.90;;;;;;5073608;28;20571;-61
2023/05/31 07:28:35;;;;;;;1.10;1.10;;;21.70;99.90;;;;;;5068752;28;20238;-61
2023/05/31 07:31:02;;;;;;;1.20;1.10;;;21.70;99.90;;;;;;5070250;28;21240;-61
2023/05/31 07:33:29;;;;;;;1.00;1.00;;;21.80;99.90;;;;;;5072065;28;20225;-63
2023/05/31 07:35:58;;;;;;;0.90;0.90;;;21.90;99.90;;;;;;5072236;28;20249;-64
2023/05/31 07:38:25;;;;;;;1.20;1.10;;;22.00;99.90;;;;;;5068697;28;20278;-67
2023/05/31 07:40:52;;;;;;;1.23;1.13;;;22.20;99.90;;;;;;5070854;28;20227;-69
2023/05/31 07:43:21;;;;;;;1.30;1.20;;;22.20;99.90;;;;;;5071457;28;20682;-66
2023/05/31 07:45:49;;;;;;;1.30;1.20;;;22.20;99.90;;;;;;5071334;28;20620;-67
2023/05/31 07:48:17;;;;;;;1.33;1.30;;;22.20;99.90;;;;;;5071502;28;20742;-66
2023/05/31 07:50:44;;;;;;;1.50;1.40;;;22.10;99.90;;;;;;5065701;28;20245;-65
2023/05/31 07:53:11;;;;;;;1.95;1.40;;;22.00;99.90;;;;;;5071701;28;20221;-67
2023/05/31 07:55:38;;;;;;;1.40;1.30;;;22.00;99.90;;;;;;5067095;28;20207;-66
2023/05/31 07:58:05;;;;;;;1.20;1.10;;;21.90;99.90;;;;;;5062472;28;20203;-66
2023/05/31 08:00:32;;;;;;;1.30;1.20;;;22.00;99.90;;;;;;5073959;28;20732;-65
2023/05/31 08:03:00;;;;;;;1.40;1.30;;;22.00;99.90;;;;;;5077002;28;20200;-65
2023/05/31 08:05:27;;;;;;;1.20;1.10;;;21.90;99.90;;;;;;5075455;28;20210;-66
2023/05/31 08:07:54;;;;;;;2.25;1.27;;;22.00;99.90;;;;;;5075572;28;20230;-65
2023/05/31 08:10:21;;;;;;;8.65;1.95;;;22.00;99.90;;;;;;5074827;28;20235;-69
2023/05/31 08:12:47;;;;;;;2.80;1.30;;;22.00;99.90;;;;;;5075360;28;20203;-68
2023/05/31 08:15:14;;;;;;;1.00;1.00;;;22.00;99.90;;;;;;5075594;28;20203;-64
2023/05/31 08:17:43;;;;;;;1.30;1.25;;;22.00;99.90;;;;;;5071501;28;20649;-63
2023/05/31 08:20:13;;;;;;;1.50;1.20;;;22.10;99.90;;;;;;5065290;28;20212;-66
2023/05/31 08:22:42;;;;;;;1.95;1.40;;;22.20;99.90;;;;;;5063066;28;20207;-64
2023/05/31 08:25:12;;;;;;;1.55;1.40;;;22.20;99.90;;;;;;5064449;28;20288;-64
2023/05/31 08:27:39;;;;;;;1.10;1.10;;;22.30;99.90;;;;;;5063478;28;20220;-65
2023/05/31 08:30:09;;;;;;;1.40;1.17;;;22.50;99.90;;;;;;5072955;28;20257;-65
2023/05/31 08:32:36;;;;;;;0.93;0.93;;;22.70;99.90;;;;;;5068775;28;20225;-65
2023/05/31 08:35:03;;;;;;;1.33;1.23;;;22.90;99.90;;;;;;5062681;28;20200;-67
2023/05/31 08:37:31;;;;;;;1.00;1.00;;;22.90;99.90;;;;;;5058906;28;20210;-65
2023/05/31 08:39:58;;;;;;;1.30;1.20;;;22.90;99.90;;;;;;5064671;28;20224;-66
2023/05/31 08:42:27;;;;;;;1.40;1.30;;;23.00;99.90;;;;;;5064455;28;20692;-66
2023/05/31 08:44:55;;;;;;;1.42;1.23;;;23.20;99.90;;;;;;5066977;28;20203;-66
2023/05/31 08:47:28;;;;;;;1.83;1.30;;;23.30;99.90;;;;;;5063010;28;20210;-64
2023/05/31 08:49:56;;;;;;;1.73;1.48;;;23.30;99.90;;;;;;5063676;28;20226;-65
2023/05/31 08:52:23;;;;;;;1.20;1.10;;;23.40;99.90;;;;;;5063565;28;20570;-64
2023/05/31 08:54:53;;;;;;;1.20;1.20;;;23.70;99.90;;;;;;5062268;28;20196;-66
2023/05/31 08:57:21;;;;;;;1.40;1.30;;;23.80;99.90;;;;;;5064128;28;20205;-63
2023/05/31 08:59:48;;;;;;;2.55;1.08;;;23.80;99.90;;;;;;5067003;28;20219;-64
2023/05/31 09:02:17;;;;;;;1.20;1.20;;;23.90;99.90;;;;;;5065390;28;20626;-63
2023/05/31 09:04:45;;;;;;;1.50;1.40;;;24.00;99.90;;;;;;5063382;28;20670;-63
2023/05/31 09:07:11;;;;;;;1.10;1.10;;;24.00;99.90;;;;;;5069703;28;20196;-64
2023/05/31 09:09:41;;;;;;;1.40;1.30;;;23.90;99.90;;;;;;5075262;28;20372;-64
2023/05/31 09:12:10;;;;;;;1.23;1.10;;;24.00;99.90;;;;;;5065053;28;20196;-63
2023/05/31 09:14:37;;;;;;;1.38;1.27;;;24.20;99.90;;;;;;5067760;28;20293;-65
2023/05/31 09:17:04;;;;;;;2.03;1.30;;;24.50;99.90;;;;;;5065641;28;20218;-65
2023/05/31 09:19:31;;;;;;;1.25;1.13;;;24.50;99.90;;;;;;5065475;28;20223;-64
2023/05/31 09:21:58;;;;;;;1.30;1.20;;;24.40;99.90;;;;;;5071233;28;20211;-66
2023/05/31 09:24:25;;;;;;;2.35;1.10;;;24.30;99.90;;;;;;5066398;28;20204;-65
2023/05/31 09:26:54;;;;;;;1.33;1.23;;;24.40;99.90;;;;;;5073751;28;20207;-65
2023/05/31 09:29:23;;;;;;;1.30;1.20;;;24.60;99.90;;;;;;5069105;28;20223;-66
2023/05/31 09:32:07;;;;;;;1.10;1.10;;;24.60;99.90;;;;;;5075084;28;20203;-65
2023/05/31 09:34:34;;;;;;;1.13;1.13;;;24.60;99.90;;;;;;5074791;28;20568;-66
2023/05/31 09:37:02;;;;;;;1.95;1.30;;;24.80;99.90;;;;;;5075580;28;20200;-67
2023/05/31 09:39:30;;;;;;;1.30;1.20;;;24.70;99.90;;;;;;5074792;28;20226;-66
2023/05/31 09:41:58;;;;;;;1.27;1.20;;;24.80;99.90;;;;;;5075292;28;20210;-66
2023/05/31 09:44:28;;;;;;;1.42;1.33;;;24.80;99.90;;;;;;5071546;28;20221;-67
2023/05/31 09:46:56;;;;;;;1.50;1.10;;;24.80;99.90;;;;;;5068605;28;20218;-66
2023/05/31 09:49:24;;;;;;;1.35;1.25;;;24.80;99.90;;;;;;5066998;28;20299;-67
2023/05/31 09:51:52;;;;;;;1.35;1.25;;;24.90;99.90;;;;;;5069925;28;20200;-66
2023/05/31 09:54:22;;;;;;;1.70;1.40;;;25.00;99.90;;;;;;5072572;28;20241;-64
2023/05/31 09:56:49;;;;;;;2.00;1.20;;;24.90;99.90;;;;;;5068220;28;20202;-66
2023/05/31 09:59:17;;;;;;;1.88;1.60;;;24.80;99.90;;;;;;5064054;28;20279;-65
2023/05/31 10:01:46;;;;;;;1.02;1.02;;;24.80;99.90;;;;;;5063493;28;20287;-65
2023/05/31 10:04:13;;;;;;;1.38;1.27;;;24.80;99.90;;;;;;5064420;28;20661;-66
2023/05/31 10:06:40;;;;;;;1.52;1.42;;;25.20;99.90;;;;;;5066067;28;20716;-64
2023/05/31 10:09:08;;;;;;;1.60;1.27;;;25.30;99.90;;;;;;5061176;28;20306;-65
2023/05/31 10:11:36;;;;;;;1.20;1.10;;;25.50;99.90;;;;;;5065268;28;20237;-65
2023/05/31 10:14:08;;;;;;;1.58;1.40;;;25.70;99.10;;;;;;5063018;28;20294;-65
2023/05/31 10:16:41;;;;;;;3.78;1.40;;;25.80;98.00;;;;;;5063245;28;20206;-65
2023/05/31 10:19:15;;;;;;;1.40;1.30;;;25.90;97.30;;;;;;5061690;28;20287;-67
2023/05/31 10:21:44;;;;;;;1.45;1.35;;;26.00;96.10;;;;;;5063705;28;20196;-65
2023/05/31 10:24:17;;;;;;;1.40;1.30;;;26.10;95.70;;;;;;5066123;28;20200;-65
2023/05/31 10:26:49;;;;;;;1.15;1.10;;;26.20;95.70;;;;;;5070735;28;20687;-65
2023/05/31 10:29:20;;;;;;;1.50;1.40;;;26.40;94.50;;;;;;5064586;28;20697;-65
2023/05/31 10:31:50;;;;;;;1.15;1.15;;;26.40;94.40;;;;;;5076148;28;20207;-65
2023/05/31 10:34:22;;;;;;;1.10;0.98;;;26.40;94.50;;;;;;5068969;28;20543;-67
2023/05/31 10:36:51;;;;;;;1.20;1.20;;;26.50;93.70;;;;;;5072342;28;20195;-65
2023/05/31 10:39:31;;;;;;;1.23;1.20;;;26.40;93.10;;;;;;5070952;28;20229;-65
2023/05/31 10:42:07;;;;;;;1.10;1.10;;;26.60;94.00;;;;;;5069211;28;20681;-67
2023/05/31 10:44:40;;;;;;;1.65;1.10;;;26.80;94.60;;;;;;5070887;28;20191;-67
2023/05/31 10:47:09;;;;;;;1.48;1.10;;;26.80;93.80;;;;;;5061523;28;20208;-63
2023/05/31 10:49:43;;;;;;;1.33;1.23;;;26.90;93.70;;;;;;5054865;28;20247;-66
2023/05/31 10:52:10;;;;;;;1.38;1.20;;;26.90;93.30;;;;;;5061014;28;20249;-64
2023/05/31 10:54:40;;;;;;;0.90;0.90;;;26.80;92.90;;;;;;5056996;28;20225;-64
2023/05/31 10:57:07;;;;;;;1.25;1.20;;;26.80;92.80;;;;;;5064021;28;20195;-66
2023/05/31 10:59:43;;;;;;;1.30;1.23;;;27.00;94.10;;;;;;5065813;28;20713;-65
2023/05/31 11:02:11;;;;;;;1.48;1.35;;;27.00;93.60;;;;;;5066256;28;20203;-65
2023/05/31 11:04:39;;;;;;;2.05;1.15;;;27.30;94.50;;;;;;5070626;28;20203;-64
2023/05/31 11:07:14;;;;;;;1.55;1.30;;;27.40;94.00;;;;;;5063284;28;20203;-64
2023/05/31 11:09:42;;;;;;;1.17;1.17;;;27.50;94.80;;;;;;5064625;28;20283;-64
2023/05/31 11:12:13;;;;;;;1.98;1.50;;;27.60;92.90;;;;;;5056512;28;20219;-67
2023/05/31 11:14:40;;;;;;;1.27;1.15;;;27.50;92.30;;;;;;5073938;28;20206;-65
2023/05/31 11:17:17;;;;;;;1.85;1.20;;;27.50;91.70;;;;;;5073744;28;20264;-65
2023/05/31 11:19:52;;;;;;;1.38;1.27;;;27.50;91.30;;;;;;5072151;28;20294;-65
2023/05/31 11:22:25;;;;;;;1.00;1.00;;;27.50;91.20;;;;;;5073322;28;20233;-65
2023/05/31 11:24:53;;;;;;;1.50;1.40;;;27.50;91.30;;;;;;5064647;28;20559;-66
2023/05/31 11:27:21;;;;;;;1.17;1.08;;;27.50;91.00;;;;;;5073261;28;20211;-65
2023/05/31 11:30:01;;;;;;;1.77;1.20;;;27.40;90.80;;;;;;5072169;28;20238;-64
2023/05/31 11:32:56;;;;;;;1.10;1.10;;;27.30;90.40;;;;;;5062241;28;20231;-64
2023/05/31 11:35:28;;;;;;;3.78;1.65;;;27.50;90.60;;;;;;5065690;28;20206;-64
2023/05/31 11:38:09;;;;;;;2.20;1.10;;;27.70;91.30;;;;;;5066654;28;20192;-64
2023/05/31 11:40:37;;;;;;;2.60;1.40;;;27.70;91.60;;;;;;5062374;28;20308;-65
2023/05/31 11:43:11;;;;;;;1.88;1.40;;;27.80;91.10;;;;;;5062825;28;20207;-65
2023/05/31 11:45:42;;;;;;;1.88;1.40;;;27.70;88.20;;;;;;5065041;28;20272;-65
2023/05/31 11:48:31;;;;;;;1.02;1.02;;;27.80;90.50;;;;;;5068876;28;20225;-65
2023/05/31 11:51:00;;;;;;;2.03;1.17;;;27.90;91.00;;;;;;5057008;28;20764;-66
2023/05/31 11:53:28;;;;;;;1.10;1.10;;;27.90;90.10;;;;;;5060737;28;20199;-65
2023/05/31 11:55:55;;;;;;;2.20;1.30;;;27.80;90.30;;;;;;5062098;28;20200;-66
2023/05/31 11:58:22;;;;;;;1.40;1.30;;;27.70;89.10;;;;;;5065312;28;20211;-67
2023/05/31 12:00:50;;;;;;;1.02;1.02;;;27.80;87.90;;;;;;5068943;28;20283;-65
2023/05/31 12:03:20;;;;;;;1.45;1.13;;;27.80;85.20;;;;;;5071098;28;20195;-66
2023/05/31 12:05:51;;;;;;;4.43;1.45;;;27.80;84.70;;;;;;5072934;28;20204;-65
2023/05/31 12:08:19;;;;;;;1.17;1.08;;;27.80;85.40;;;;;;5069808;28;20217;-65
2023/05/31 12:10:46;;;;;;;1.92;1.70;;;27.90;86.30;;;;;;5062495;28;20243;-65
2023/05/31 12:13:16;;;;;;;1.25;1.20;;;28.00;86.40;;;;;;5066315;28;20218;-66
2023/05/31 12:15:50;;;;;;;1.13;1.13;;;28.10;86.70;;;;;;5068767;28;20209;-65
2023/05/31 12:18:17;;;;;;;1.67;1.58;;;28.20;86.70;;;;;;5069665;28;20211;-66
2023/05/31 12:20:45;;;;;;;2.10;1.50;;;28.30;86.10;;;;;;5077235;28;20226;-65
2023/05/31 12:23:13;;;;;;;1.40;1.30;;;28.30;87.60;;;;;;5066014;28;20260;-64
2023/05/31 12:25:46;;;;;;;1.05;1.05;;;28.20;86.90;;;;;;5064075;28;20212;-64
2023/05/31 12:28:13;;;;;;;1.05;1.02;;;28.20;85.10;;;;;;5065390;28;20594;-65
2023/05/31 12:30:44;;;;;;;1.08;1.08;;;28.20;86.30;;;;;;5064926;28;20269;-66
2023/05/31 12:33:12;;;;;;;1.50;1.40;;;28.30;87.10;;;;;;5065850;28;20196;-66
2023/05/31 12:35:44;;;;;;;2.25;1.23;;;28.30;87.20;;;;;;5066522;28;20200;-64
2023/05/31 12:38:11;;;;;;;1.40;1.30;;;28.30;85.90;;;;;;5064464;28;20200;-63
2023/05/31 12:40:39;;;;;;;1.10;1.10;;;28.40;87.20;;;;;;5063173;28;20273;-63
2023/05/31 12:43:08;;;;;;;1.20;1.10;;;28.40;87.00;;;;;;5062650;28;20658;-63
2023/05/31 12:45:39;;;;;;;1.77;1.23;;;28.50;87.30;;;;;;5062363;28;20200;-64
2023/05/31 12:48:08;;;;;;;1.05;1.05;;;28.50;85.60;;;;;;5054287;28;20722;-64
2023/05/31 12:50:35;;;;;;;1.48;1.10;;;28.50;83.50;;;;;;5053807;28;20343;-64
2023/05/31 12:53:01;;;;;;;1.38;1.27;;;28.50;84.80;;;;;;5062096;28;20218;-63
2023/05/31 12:55:28;;;;;;;1.20;1.20;;;28.50;83.20;;;;;;5064538;28;20218;-64